Mont Saint Michel — FNMT — position and weather

sailwx.info

Track history (hours):
 
Tides and Currents Weather Stations Pressure Air Temp Water Temp Dewpoint Dewpoint Depression Visibility Wind Speed Wind Dir Waves Ship Positions

Mont Saint Michel

Last reported at 2019-Oct-22 23:54 UTC. Time now 2019-Oct-23 00:56 UTC.
Position N 50°24' W 000°51'.

Length 173 m; beam 29 m.

Type: Ship. MMSI: 227023100.

Date/timePositionNaut miles runAvg speedWind from/ knotsBaromVisibWave heightAir tempDewpointWater temp
2019-Oct-22 23:54N 50°24' W 000°51'615.9
2019-Oct-22 23:31N 50°30' W 000°54'815.8
2019-Oct-22 23:01N 50°38' W 000°57'714.5
2019-Oct-22 22:31N 50°44' W 001°03'510.6
2019-Oct-22 22:00N 50°49' W 001°06'0 0.4
2019-Oct-22 21:30N 50°49' W 001°06'0 0.0
2019-Oct-22 21:00N 50°49' W 001°06'0 0.0
2019-Oct-22 20:30N 50°49' W 001°06'1 1.2
2019-Oct-22 20:01N 50°48' W 001°07'713.6
2019-Oct-22 19:30N 50°43' W 001°01'1019.7
2019-Oct-22 19:00N 50°33' W 000°55'1920.8
2019-Oct-22 18:06N 50°16' W 000°44'221.0
2019-Oct-22 18:00N 50°14' W 000°43'1020.9
2019-Oct-22 17:30N 50°04' W 000°39'1020.8
2019-Oct-22 17:00N 49°54' W 000°34'1020.6
2019-Oct-22 16:30N 49°44' W 000°29'1020.5
2019-Oct-22 16:00N 49°35' W 000°24'1019.9
2019-Oct-22 15:30N 49°25' W 000°19'816.2
2019-Oct-22 15:00N 49°18' W 000°15'0 0.6
2019-Oct-22 14:30N 49°17' W 000°15'0 0.0
2019-Oct-22 14:00N 49°17' W 000°15'0 0.0
2019-Oct-22 13:30N 49°17' W 000°15'0 0.0
2019-Oct-22 13:00N 49°17' W 000°15'1 1.8
2019-Oct-22 12:30N 49°18' W 000°15'918.5
2019-Oct-22 12:01N 49°27' W 000°17'1019.1
2019-Oct-22 11:31N 49°36' W 000°23'1019.3
2019-Oct-22 11:01N 49°45' W 000°29'1019.0
2019-Oct-22 10:31N 49°54' W 000°34'1019.2
2019-Oct-22 10:01N 50°03' W 000°40'1019.0
2019-Oct-22 09:30N 50°12' W 000°45'1218.0
2019-Oct-22 08:52N 50°22' W 000°51'719.1
2019-Oct-22 08:30N 50°29' W 000°54'919.1
2019-Oct-22 08:01N 50°38' W 000°59'918.5
2019-Oct-22 07:31N 50°46' W 001°06'2 4.9
2019-Oct-22 07:01N 50°49' W 001°06'0 0.0
2019-Oct-22 06:31N 50°49' W 001°06'0 0.0
2019-Oct-22 06:01N 50°49' W 001°06'0 0.0
2019-Oct-22 05:30N 50°49' W 001°06'3 6.2
2019-Oct-22 05:01N 50°46' W 001°05'815.7
2019-Oct-22 04:30N 50°39' W 000°59'815.5
2019-Oct-22 04:00N 50°31' W 000°55'815.4
2019-Oct-22 03:30N 50°24' W 000°52'913.5
2019-Oct-22 02:51N 50°17' W 000°45'514.7
2019-Oct-22 02:30N 50°12' W 000°42'714.6
2019-Oct-22 02:00N 50°05' W 000°38'611.3
2019-Oct-22 01:31N 49°60' W 000°36'510.7
2019-Oct-22 01:01N 49°54' W 000°33'510.7
2019-Oct-22 00:30N 49°49' W 000°30'510.8
2019-Oct-22 00:01N 49°44' W 000°28'611.0
2019-Oct-21 23:31N 49°39' W 000°25'611.3
2019-Oct-21 23:01N 49°34' W 000°23'611.5
2019-Oct-21 22:31N 49°28' W 000°19'611.6
2019-Oct-21 22:01N 49°23' W 000°16'510.8
2019-Oct-21 21:30N 49°17' W 000°15'0 0.3
2019-Oct-21 21:01N 49°17' W 000°15'0 0.0
2019-Oct-21 20:31N 49°17' W 000°15'0 0.0
2019-Oct-21 20:01N 49°17' W 000°15'0 0.0
2019-Oct-21 19:30N 49°17' W 000°15'2 3.7
2019-Oct-21 19:00N 49°19' W 000°15'816.8
2019-Oct-21 18:30N 49°27' W 000°19'917.9
2019-Oct-21 18:01N 49°35' W 000°25'917.9
2019-Oct-21 17:31N 49°43' W 000°32'918.4
2019-Oct-21 17:01N 49°52' W 000°36'918.7
2019-Oct-21 16:30N 50°01' W 000°40'918.8
2019-Oct-21 16:01N 50°10' W 000°45'1018.8
2019-Oct-21 15:27N 50°20' W 000°48'919.1
2019-Oct-21 15:00N 50°28' W 000°52'1020.7
2019-Oct-21 14:31N 50°38' W 000°58'917.6
2019-Oct-21 14:01N 50°45' W 001°05'4 7.2
2019-Oct-21 13:30N 50°49' W 001°06'0 0.0
2019-Oct-21 13:00N 50°49' W 001°06'0 0.0
2019-Oct-21 12:31N 50°49' W 001°06'0 0.3
2019-Oct-21 12:00N 50°49' W 001°06'612.0
2019-Oct-21 11:30N 50°43' W 001°02'918.5
2019-Oct-21 11:01N 50°35' W 000°55'1019.7
2019-Oct-21 10:30N 50°26' W 000°50'1019.9
2019-Oct-21 10:00N 50°16' W 000°46'1019.9
2019-Oct-21 09:30N 50°07' W 000°40'918.9
2019-Oct-21 09:00N 49°58' W 000°36'918.1
2019-Oct-21 08:30N 49°49' W 000°32'918.2
2019-Oct-21 08:01N 49°41' W 000°28'918.2
2019-Oct-21 07:30N 49°32' W 000°23'918.6
2019-Oct-21 07:00N 49°24' W 000°16'713.3
2019-Oct-21 06:30N 49°17' W 000°15'0 0.0
2019-Oct-21 06:00N 49°17' W 000°15'0 0.0
2019-Oct-21 05:30N 49°17' W 000°15'0 0.0
2019-Oct-21 05:00N 49°17' W 000°15'0 0.3
2019-Oct-21 04:30N 49°17' W 000°15'612.7
2019-Oct-21 04:00N 49°24' W 000°16'715.0
2019-Oct-21 03:30N 49°31' W 000°20'815.2
2019-Oct-21 03:00N 49°37' W 000°25'715.0
2019-Oct-21 02:30N 49°44' W 000°29'815.2
2019-Oct-21 02:00N 49°52' W 000°32'815.3
2019-Oct-21 01:30N 49°59' W 000°36'815.3
2019-Oct-21 01:00N 50°06' W 000°40'815.2
2019-Oct-21 00:30N 50°14' W 000°44'715.0
2019-Oct-21 00:00N 50°21' W 000°47'815.2
2019-Oct-20 23:30N 50°28' W 000°52'815.5
2019-Oct-20 23:00N 50°35' W 000°56'714.9
2019-Oct-20 22:30N 50°42' W 000°58'612.8
2019-Oct-20 22:01N 50°47' W 001°06'2 4.3
2019-Oct-20 21:31N 50°49' W 001°06'0 0.0
2019-Oct-20 21:01N 50°49' W 001°06'0 0.0
2019-Oct-20 20:31N 50°49' W 001°06'1 1.6
2019-Oct-20 20:01N 50°48' W 001°07'713.6
2019-Oct-20 19:31N 50°43' W 000°60'917.3
2019-Oct-20 19:00N 50°35' W 000°56'918.2
2019-Oct-20 18:30N 50°26' W 000°52'1417.8
2019-Oct-20 17:45N 50°13' W 000°44'416.6
2019-Oct-20 17:31N 50°10' W 000°42'816.4
2019-Oct-20 17:01N 50°02' W 000°38'816.5
2019-Oct-20 16:31N 49°54' W 000°33'918.8
2019-Oct-20 16:01N 49°45' W 000°28'918.8
2019-Oct-20 15:31N 49°37' W 000°23'1019.3
2019-Oct-20 15:01N 49°28' W 000°17'1019.5
2019-Oct-20 14:30N 49°18' W 000°15'1 1.5
2019-Oct-20 14:00N 49°17' W 000°15'0 0.0
2019-Oct-20 13:30N 49°17' W 000°15'0 0.0
2019-Oct-20 13:00N 49°17' W 000°15'3 6.2
2019-Oct-20 12:30N 49°20' W 000°14'1019.5
2019-Oct-20 12:00N 49°30' W 000°20'1019.7
2019-Oct-20 11:30N 49°39' W 000°25'1020.0
2019-Oct-20 11:01N 49°48' W 000°30'1020.2
2019-Oct-20 10:30N 49°58' W 000°35'1020.1
2019-Oct-20 10:00N 50°07' W 000°40'1119.9
2019-Oct-20 09:26N 50°18' W 000°46'1119.7
2019-Oct-20 08:52N 50°28' W 000°52'719.4
2019-Oct-20 08:30N 50°35' W 000°56'917.4
2019-Oct-20 08:00N 50°43' W 001°01'612.5
2019-Oct-20 07:30N 50°48' W 001°07'1 1.8
2019-Oct-20 07:00N 50°49' W 001°06'0 0.0
2019-Oct-20 06:30N 50°49' W 001°06'0 0.0
2019-Oct-20 06:00N 50°49' W 001°06'0 0.2
2019-Oct-20 05:31N 50°49' W 001°06'4 7.0
2019-Oct-20 05:00N 50°45' W 001°05'815.3
2019-Oct-20 04:30N 50°39' W 000°58'815.8
2019-Oct-20 04:00N 50°32' W 000°52'815.8
2019-Oct-20 03:30N 50°25' W 000°48'1012.2
2019-Oct-20 02:39N 50°15' W 000°41'211.3
2019-Oct-20 02:31N 50°14' W 000°40'611.1
2019-Oct-20 02:01N 50°09' W 000°36'611.0
2019-Oct-20 01:30N 50°03' W 000°33'510.8
2019-Oct-20 01:00N 49°58' W 000°31'510.8
2019-Oct-20 00:30N 49°53' W 000°29'510.8
2019-Oct-20 00:00N 49°48' W 000°26'510.8
2019-Oct-19 23:30N 49°43' W 000°24'510.8
2019-Oct-19 23:01N 49°37' W 000°22'510.8
2019-Oct-19 22:30N 49°32' W 000°20'510.5
2019-Oct-19 22:00N 49°27' W 000°18'510.7
2019-Oct-19 21:30N 49°22' W 000°15'5 9.5
2019-Oct-19 21:00N 49°17' W 000°15'0 0.0
2019-Oct-19 20:30N 49°17' W 000°15'0 0.0
2019-Oct-19 20:00N 49°17' W 000°15'0 0.0
2019-Oct-19 19:30N 49°17' W 000°15'3 6.4
2019-Oct-19 19:01N 49°21' W 000°14'918.3
2019-Oct-19 18:31N 49°29' W 000°20'918.1
2019-Oct-19 18:00N 49°37' W 000°25'918.2
2019-Oct-19 17:30N 49°46' W 000°30'918.1
2019-Oct-19 17:00N 49°55' W 000°33'918.8
2019-Oct-19 16:31N 50°03' W 000°38'1019.2
2019-Oct-19 16:01N 50°12' W 000°44'1519.5
2019-Oct-19 15:14N 50°26' W 000°52'519.5
2019-Oct-19 15:00N 50°31' W 000°54'1020.0
2019-Oct-19 14:30N 50°40' W 000°59'917.7
2019-Oct-19 14:00N 50°48' W 001°07'1 2.4
2019-Oct-19 13:30N 50°49' W 001°06'0 0.0
2019-Oct-19 13:00N 50°49' W 001°06'0 0.0
2019-Oct-19 12:30N 50°49' W 001°06'0 0.3
2019-Oct-19 12:00N 50°49' W 001°06'611.7
2019-Oct-19 11:30N 50°43' W 001°02'1019.1
2019-Oct-19 11:00N 50°35' W 000°55'1619.2
2019-Oct-19 10:09N 50°20' W 000°43'320.2
2019-Oct-19 10:00N 50°17' W 000°43'1019.7
2019-Oct-19 09:31N 50°08' W 000°39'1019.8
2019-Oct-19 09:01N 49°59' W 000°34'1019.7
2019-Oct-19 08:31N 49°49' W 000°29'1019.6
2019-Oct-19 08:00N 49°40' W 000°23'1020.0
2019-Oct-19 07:30N 49°31' W 000°17'1019.8
2019-Oct-19 07:01N 49°21' W 000°14'4 7.6
2019-Oct-19 06:30N 49°17' W 000°15'0 0.0
2019-Oct-19 06:00N 49°17' W 000°15'0 0.0
2019-Oct-19 05:30N 49°17' W 000°15'0 0.0
2019-Oct-19 05:00N 49°17' W 000°15'0 0.2
2019-Oct-19 04:30N 49°17' W 000°15'815.4
2019-Oct-19 04:00N 49°25' W 000°15'918.5
2019-Oct-19 03:30N 49°33' W 000°22'816.5
2019-Oct-19 03:00N 49°41' W 000°26'816.5
2019-Oct-19 02:30N 49°49' W 000°31'816.7
2019-Oct-19 02:00N 49°56' W 000°36'816.9
2019-Oct-19 01:30N 50°04' W 000°41'1017.0
2019-Oct-19 00:55N 50°13' W 000°48'1516.9
2019-Oct-19 00:00N 50°27' W 001°00'714.3
2019-Oct-18 23:30N 50°32' W 001°06'510.7
2019-Oct-18 23:01N 50°38' W 001°06'510.7
2019-Oct-18 22:31N 50°43' W 001°03'611.8
2019-Oct-18 22:01N 50°48' W 001°07'1 1.8
2019-Oct-18 21:30N 50°49' W 001°06'0 0.0
2019-Oct-18 21:01N 50°49' W 001°06'0 0.0
2019-Oct-18 20:31N 50°49' W 001°06'2 3.6
2019-Oct-18 20:00N 50°47' W 001°06'815.5
2019-Oct-18 19:30N 50°41' W 000°58'1019.4
2019-Oct-18 19:00N 50°31' W 000°59'2919.5
2019-Oct-18 17:32N 50°03' W 000°57'120.5
2019-Oct-18 17:29N 50°02' W 000°57'1020.7
2019-Oct-18 17:00N 49°52' W 000°54'1020.6
2019-Oct-18 16:30N 49°43' W 000°47'1121.4
2019-Oct-18 16:00N 49°35' W 000°36'1121.4
2019-Oct-18 15:30N 49°28' W 000°23'918.6
2019-Oct-18 15:00N 49°21' W 000°14'4 7.2
2019-Oct-18 14:30N 49°17' W 000°15'0 0.0
2019-Oct-18 14:00N 49°17' W 000°15'0 0.0
2019-Oct-18 13:30N 49°17' W 000°15'0 0.0
2019-Oct-18 13:00N 49°17' W 000°15'3 5.0
2019-Oct-18 12:30N 49°20' W 000°14'917.4
2019-Oct-18 12:01N 49°28' W 000°19'1019.3
2019-Oct-18 11:31N 49°37' W 000°23'1019.6
2019-Oct-18 11:01N 49°46' W 000°28'1020.1
2019-Oct-18 10:31N 49°56' W 000°35'1020.3
2019-Oct-18 10:00N 50°05' W 000°42'1020.2
2019-Oct-18 09:30N 50°14' W 000°49'1220.3
2019-Oct-18 08:54N 50°25' W 000°57'820.3
2019-Oct-18 08:30N 50°32' W 001°03'816.0
2019-Oct-18 08:00N 50°40' W 001°04'612.6
2019-Oct-18 07:30N 50°46' W 001°06'2 4.9
2019-Oct-18 07:00N 50°49' W 001°06'0 0.0
2019-Oct-18 06:30N 50°49' W 001°06'0 0.0
2019-Oct-18 06:00N 50°49' W 001°06'0 0.3
2019-Oct-18 05:30N 50°49' W 001°06'5 9.1
2019-Oct-18 05:00N 50°44' W 001°04'713.6
2019-Oct-18 04:31N 50°39' W 000°59'714.5
2019-Oct-18 04:00N 50°31' W 000°59'1312.9
2019-Oct-18 03:00N 50°18' W 001°01'510.7
2019-Oct-18 02:30N 50°13' W 001°01'711.0
2019-Oct-18 01:52N 50°06' W 001°00'511.3
2019-Oct-18 01:27N 50°01' W 001°00'511.3
2019-Oct-18 01:00N 49°56' W 000°60'611.4
2019-Oct-18 00:30N 49°51' W 000°60'510.5
2019-Oct-18 00:00N 49°46' W 000°56'714.3
2019-Oct-17 23:30N 49°41' W 000°48'714.7
2019-Oct-17 23:00N 49°36' W 000°40'714.9
2019-Oct-17 22:30N 49°31' W 000°31'713.4
2019-Oct-17 22:00N 49°26' W 000°24'612.6
2019-Oct-17 21:30N 49°22' W 000°16'5 9.9
2019-Oct-17 21:00N 49°17' W 000°15'0 0.0
2019-Oct-17 20:30N 49°17' W 000°15'0 0.0
2019-Oct-17 20:00N 49°17' W 000°15'0 0.0
2019-Oct-17 19:30N 49°17' W 000°15'3 5.6
2019-Oct-17 19:00N 49°20' W 000°14'917.6
2019-Oct-17 18:30N 49°28' W 000°20'917.4
2019-Oct-17 18:00N 49°36' W 000°24'917.5
2019-Oct-17 17:30N 49°45' W 000°28'816.8
2019-Oct-17 17:00N 49°52' W 000°35'918.9
2019-Oct-17 16:30N 50°01' W 000°39'918.8
2019-Oct-17 16:00N 50°10' W 000°44'1319.0
2019-Oct-17 15:19N 50°23' W 000°50'619.0
2019-Oct-17 15:00N 50°28' W 000°53'918.7
2019-Oct-17 14:30N 50°37' W 000°57'918.4
2019-Oct-17 14:00N 50°45' W 001°05'4 7.7
2019-Oct-17 13:30N 50°49' W 001°06'0 0.0
2019-Oct-17 13:00N 50°49' W 001°06'0 0.0
2019-Oct-17 12:30N 50°49' W 001°06'0 0.1
2019-Oct-17 12:00N 50°49' W 001°06'611.0
2019-Oct-17 11:30N 50°43' W 001°03'1019.7
2019-Oct-17 11:00N 50°35' W 000°57'2020.1
2019-Oct-17 10:02N 50°16' W 000°46'120.2
2019-Oct-17 10:00N 50°15' W 000°45'1019.7
2019-Oct-17 09:30N 50°06' W 000°40'1019.8
2019-Oct-17 09:00N 49°57' W 000°36'1019.4
2019-Oct-17 08:30N 49°48' W 000°31'918.0
2019-Oct-17 08:00N 49°39' W 000°27'918.0
2019-Oct-17 07:30N 49°31' W 000°21'918.4
2019-Oct-17 07:00N 49°22' W 000°16'510.3
2019-Oct-17 06:30N 49°17' W 000°15'0 0.0
2019-Oct-17 06:00N 49°17' W 000°15'0 0.0
2019-Oct-17 05:30N 49°17' W 000°15'0 0.0
2019-Oct-17 05:00N 49°17' W 000°15'0 0.5
2019-Oct-17 04:30N 49°18' W 000°15'713.4
2019-Oct-17 04:00N 49°24' W 000°17'714.2
2019-Oct-17 03:30N 49°31' W 000°20'510.1
2019-Oct-17 03:01N 49°36' W 000°23'5 9.8
2019-Oct-17 02:31N 49°40' W 000°25'510.1
2019-Oct-17 02:01N 49°45' W 000°27'510.1
2019-Oct-17 01:31N 49°50' W 000°29'510.4
2019-Oct-17 01:01N 49°55' W 000°32'714.3
2019-Oct-17 00:30N 50°02' W 000°36'815.2
2019-Oct-17 00:00N 50°09' W 000°39'1315.1
2019-Oct-16 23:07N 50°21' W 000°47'213.1
2019-Oct-16 23:00N 50°23' W 000°47'714.9
2019-Oct-16 22:31N 50°30' W 000°52'815.6
2019-Oct-16 22:01N 50°36' W 000°57'714.9
2019-Oct-16 21:31N 50°43' W 001°03'612.0
2019-Oct-16 21:00N 50°48' W 001°07'1 1.3
2019-Oct-16 20:31N 50°49' W 001°06'0 0.0
2019-Oct-16 20:00N 50°49' W 001°06'0 0.0
2019-Oct-16 19:31N 50°49' W 001°06'0 0.0
2019-Oct-16 19:01N 50°49' W 001°06'0 0.0
2019-Oct-16 18:31N 50°49' W 001°06'1 1.4
2019-Oct-16 18:01N 50°48' W 001°07'612.5
2019-Oct-16 17:30N 50°43' W 001°01'815.7
2019-Oct-16 17:00N 50°36' W 000°57'1816.9
2019-Oct-16 15:56N 50°19' W 000°47'715.9
2019-Oct-16 15:30N 50°12' W 000°44'816.6
2019-Oct-16 15:00N 50°05' W 000°39'816.6
2019-Oct-16 14:30N 49°57' W 000°35'816.9
2019-Oct-16 14:00N 49°49' W 000°30'816.7
2019-Oct-16 13:30N 49°41' W 000°25'918.5
2019-Oct-16 13:00N 49°32' W 000°20'1019.1
2019-Oct-16 12:30N 49°23' W 000°16'612.1
2019-Oct-16 12:00N 49°17' W 000°15'0 0.0
2019-Oct-16 11:30N 49°17' W 000°15'0 0.0
2019-Oct-16 11:00N 49°17' W 000°15'0 0.0
2019-Oct-16 10:30N 49°17' W 000°15'0 0.0
2019-Oct-16 10:00N 49°17' W 000°15'0 0.1
2019-Oct-16 09:30N 49°17' W 000°15'0 0.0
2019-Oct-16 09:00N 49°17' W 000°15'0 0.0
2019-Oct-16 08:30N 49°17' W 000°15'0 0.0
2019-Oct-16 08:00N 49°17' W 000°15'0 0.0
2019-Oct-16 07:30N 49°17' W 000°15'0 0.1
2019-Oct-16 07:00N 49°17' W 000°15'0 0.0
2019-Oct-16 06:30N 49°17' W 000°15'0 0.0
2019-Oct-16 06:00N 49°17' W 000°15'0 0.0
2019-Oct-16 05:30N 49°17' W 000°15'0 0.7
2019-Oct-16 05:00N 49°18' W 000°15'713.4
2019-Oct-16 04:30N 49°24' W 000°15'816.0
2019-Oct-16 04:00N 49°32' W 000°19'816.3
2019-Oct-16 03:30N 49°39' W 000°24'815.7
2019-Oct-16 03:00N 49°46' W 000°30'815.7
2019-Oct-16 02:30N 49°54' W 000°32'815.2
2019-Oct-16 02:00N 50°01' W 000°36'612.9
2019-Oct-16 01:30N 50°07' W 000°39'1713.4
2019-Oct-16 00:14N 50°23' W 000°48'413.9
2019-Oct-15 23:59N 50°26' W 000°50'714.0
2019-Oct-15 23:30N 50°33' W 000°55'713.8
2019-Oct-15 23:00N 50°39' W 000°59'713.1
2019-Oct-15 22:30N 50°44' W 001°04'4 8.9
2019-Oct-15 22:00N 50°49' W 001°07'1 1.5
2019-Oct-15 21:30N 50°49' W 001°06'0 0.0
2019-Oct-15 21:00N 50°49' W 001°06'0 0.0
2019-Oct-15 20:30N 50°49' W 001°06'1 1.2
2019-Oct-15 20:00N 50°49' W 001°07'713.1
2019-Oct-15 19:31N 50°43' W 001°01'918.7
2019-Oct-15 19:01N 50°35' W 000°54'1918.6
2019-Oct-15 18:00N 50°17' W 000°47'918.7
2019-Oct-15 17:30N 50°08' W 000°44'919.0
2019-Oct-15 17:01N 49°59' W 000°40'1019.5
2019-Oct-15 16:31N 49°50' W 000°32'918.4
2019-Oct-15 16:01N 49°41' W 000°28'1019.3
2019-Oct-15 15:31N 49°32' W 000°24'1019.6
2019-Oct-15 15:01N 49°24' W 000°17'612.6
2019-Oct-15 14:30N 49°17' W 000°15'0 0.0
2019-Oct-15 14:00N 49°17' W 000°15'0 0.0
2019-Oct-15 13:30N 49°17' W 000°15'0 0.0
2019-Oct-15 13:00N 49°17' W 000°15'3 6.1
2019-Oct-15 12:31N 49°20' W 000°14'1019.3
2019-Oct-15 12:01N 49°30' W 000°19'1019.4
2019-Oct-15 11:31N 49°38' W 000°27'1019.6
2019-Oct-15 11:00N 49°47' W 000°33'1019.6
2019-Oct-15 10:31N 49°56' W 000°39'1019.5
2019-Oct-15 10:01N 50°05' W 000°43'2019.7
2019-Oct-15 09:00N 50°24' W 000°52'1020.3
2019-Oct-15 08:31N 50°34' W 000°57'918.8
2019-Oct-15 08:01N 50°43' W 001°00'713.9
2019-Oct-15 07:30N 50°48' W 001°07'1 1.4
2019-Oct-15 07:00N 50°49' W 001°06'0 0.0
2019-Oct-15 06:30N 50°49' W 001°06'0 0.0
2019-Oct-15 06:00N 50°49' W 001°06'1 1.3
2019-Oct-15 05:30N 50°48' W 001°07'611.7
2019-Oct-15 05:00N 50°44' W 001°02'612.9
2019-Oct-15 04:30N 50°38' W 000°58'814.9
2019-Oct-15 03:59N 50°30' W 000°54'1712.3
2019-Oct-15 02:36N 50°14' W 000°46'112.2
2019-Oct-15 02:30N 50°13' W 000°45'612.1
2019-Oct-15 02:00N 50°07' W 000°42'612.4
2019-Oct-15 01:30N 50°01' W 000°38'612.5
2019-Oct-15 01:00N 49°56' W 000°34'612.3
2019-Oct-15 00:30N 49°50' W 000°31'612.1
2019-Oct-15 00:00N 49°45' W 000°27'611.8
2019-Oct-14 23:30N 49°39' W 000°24'611.5
2019-Oct-14 23:00N 49°33' W 000°22'611.4
2019-Oct-14 22:30N 49°28' W 000°19'611.3
2019-Oct-14 22:00N 49°23' W 000°15'510.5
2019-Oct-14 21:30N 49°18' W 000°15'0 0.5
2019-Oct-14 21:00N 49°17' W 000°15'0 0.0
2019-Oct-14 20:30N 49°17' W 000°15'0 0.0
2019-Oct-14 20:00N 49°17' W 000°15'0 0.0
2019-Oct-14 19:30N 49°17' W 000°15'4 7.2
2019-Oct-14 19:00N 49°21' W 000°14'1019.3
2019-Oct-14 18:30N 49°30' W 000°19'918.5
2019-Oct-14 18:00N 49°38' W 000°25'918.0
2019-Oct-14 17:30N 49°47' W 000°31'917.9
2019-Oct-14 17:00N 49°54' W 000°39'918.0
2019-Oct-14 16:30N 50°02' W 000°45'918.1
2019-Oct-14 16:00N 50°11' W 000°49'1718.8
2019-Oct-14 15:06N 50°27' W 000°52'218.4
2019-Oct-14 15:00N 50°29' W 000°53'918.3
2019-Oct-14 14:30N 50°38' W 000°58'917.1
2019-Oct-14 14:00N 50°45' W 001°05'4 7.3
2019-Oct-14 13:31N 50°49' W 001°06'0 0.0
2019-Oct-14 13:01N 50°49' W 001°06'0 0.0
2019-Oct-14 12:31N 50°49' W 001°06'0 0.5
2019-Oct-14 12:01N 50°49' W 001°06'611.7
2019-Oct-14 11:30N 50°43' W 001°03'917.6
2019-Oct-14 11:00N 50°35' W 000°58'1819.7
2019-Oct-14 10:07N 50°18' W 000°49'221.0
2019-Oct-14 10:00N 50°16' W 000°48'1020.4
2019-Oct-14 09:30N 50°07' W 000°43'1020.2
2019-Oct-14 09:00N 49°57' W 000°38'1020.1
2019-Oct-14 08:30N 49°48' W 000°33'1020.1
2019-Oct-14 08:00N 49°38' W 000°29'1019.8
2019-Oct-14 07:30N 49°29' W 000°22'918.7
2019-Oct-14 07:00N 49°21' W 000°15'4 7.2
2019-Oct-14 06:30N 49°17' W 000°15'0 0.0
2019-Oct-14 06:00N 49°17' W 000°15'0 0.0
2019-Oct-14 05:30N 49°17' W 000°15'0 0.0
2019-Oct-14 05:01N 49°17' W 000°15'0 0.2
2019-Oct-14 04:30N 49°17' W 000°15'713.9
2019-Oct-14 04:00N 49°24' W 000°15'816.3
2019-Oct-14 03:30N 49°32' W 000°21'816.9
2019-Oct-14 03:00N 49°39' W 000°26'917.3
2019-Oct-14 02:30N 49°48' W 000°29'715.0
2019-Oct-14 02:00N 49°55' W 000°33'714.2
2019-Oct-14 01:30N 50°02' W 000°36'714.4
2019-Oct-14 01:00N 50°09' W 000°39'2214.7
2019-Oct-13 23:31N 50°29' W 000°53'015.3
2019-Oct-13 23:30N 50°29' W 000°53'815.2
2019-Oct-13 23:00N 50°36' W 000°57'714.2
2019-Oct-13 22:30N 50°42' W 001°02'611.9
2019-Oct-13 22:00N 50°47' W 001°07'1 2.7
2019-Oct-13 21:30N 50°49' W 001°06'0 0.0
2019-Oct-13 21:00N 50°49' W 001°06'0 0.0
2019-Oct-13 20:30N 50°49' W 001°06'0 0.8
2019-Oct-13 20:01N 50°49' W 001°06'612.3
2019-Oct-13 19:30N 50°43' W 001°01'918.3
2019-Oct-13 19:00N 50°35' W 000°57'2019.5
2019-Oct-13 18:00N 50°16' W 000°47'918.1
2019-Oct-13 17:30N 50°08' W 000°43'918.4
2019-Oct-13 17:00N 49°59' W 000°39'918.8
2019-Oct-13 16:30N 49°50' W 000°34'918.9
2019-Oct-13 16:00N 49°41' W 000°28'918.8
2019-Oct-13 15:30N 49°33' W 000°20'919.0
2019-Oct-13 15:00N 49°24' W 000°16'713.8
2019-Oct-13 14:30N 49°17' W 000°15'0 0.1
2019-Oct-13 14:00N 49°17' W 000°15'0 0.0
2019-Oct-13 13:30N 49°17' W 000°15'0 0.0
2019-Oct-13 13:00N 49°17' W 000°15'4 8.0
2019-Oct-13 12:31N 49°21' W 000°15'918.3
2019-Oct-13 12:01N 49°30' W 000°20'918.2
2019-Oct-13 11:31N 49°38' W 000°26'918.9
2019-Oct-13 11:01N 49°46' W 000°33'1019.6
2019-Oct-13 10:31N 49°55' W 000°39'1019.9
2019-Oct-13 10:01N 50°05' W 000°44'1020.0
2019-Oct-13 09:30N 50°14' W 000°49'1019.9
2019-Oct-13 09:00N 50°24' W 000°54'1019.7
2019-Oct-13 08:31N 50°33' W 000°57'918.6
2019-Oct-13 08:01N 50°42' W 001°01'714.4
2019-Oct-13 07:31N 50°48' W 001°07'1 1.5
2019-Oct-13 07:00N 50°49' W 001°06'0 0.0
2019-Oct-13 06:30N 50°49' W 001°06'0 0.0
2019-Oct-13 06:00N 50°49' W 001°06'0 0.2
2019-Oct-13 05:31N 50°49' W 001°06'5 9.1
2019-Oct-13 05:01N 50°44' W 001°04'713.5
2019-Oct-13 04:30N 50°39' W 000°58'611.7
2019-Oct-13 04:01N 50°33' W 000°55'611.7
2019-Oct-13 03:28N 50°28' W 000°51'1111.4
2019-Oct-13 02:33N 50°18' W 000°45'111.8
2019-Oct-13 02:26N 50°17' W 000°44'511.5
2019-Oct-13 02:00N 50°12' W 000°42'611.5
2019-Oct-13 01:30N 50°07' W 000°39'612.0
2019-Oct-13 01:01N 50°01' W 000°36'612.1
2019-Oct-13 00:30N 49°55' W 000°34'612.3
2019-Oct-13 00:00N 49°49' W 000°30'  
Track history (hours):
 
Tides and Currents Weather Stations Pressure Air Temp Water Temp Dewpoint Dewpoint Depression Visibility Wind Speed Wind Dir Waves Ship Positions

Mont Saint Michel

Last reported at 2019-Oct-22 23:54 UTC. Time now 2019-Oct-23 00:56 UTC.
Position N 50°24' W 000°51'.

Length 173 m; beam 29 m.

Type: Ship. MMSI: 227023100.

Date/timePositionNaut miles runAvg speedWind from/ knotsBaromVisibWave heightAir tempDewpointWater temp
2019-Oct-22 23:54N 50°24' W 000°51'615.9
2019-Oct-22 23:31N 50°30' W 000°54'815.8
2019-Oct-22 23:01N 50°38' W 000°57'714.5
2019-Oct-22 22:31N 50°44' W 001°03'510.6
2019-Oct-22 22:00N 50°49' W 001°06'0 0.4
2019-Oct-22 21:30N 50°49' W 001°06'0 0.0
2019-Oct-22 21:00N 50°49' W 001°06'0 0.0
2019-Oct-22 20:30N 50°49' W 001°06'1 1.2
2019-Oct-22 20:01N 50°48' W 001°07'713.6
2019-Oct-22 19:30N 50°43' W 001°01'1019.7
2019-Oct-22 19:00N 50°33' W 000°55'1920.8
2019-Oct-22 18:06N 50°16' W 000°44'221.0
2019-Oct-22 18:00N 50°14' W 000°43'1020.9
2019-Oct-22 17:30N 50°04' W 000°39'1020.8
2019-Oct-22 17:00N 49°54' W 000°34'1020.6
2019-Oct-22 16:30N 49°44' W 000°29'1020.5
2019-Oct-22 16:00N 49°35' W 000°24'1019.9
2019-Oct-22 15:30N 49°25' W 000°19'816.2
2019-Oct-22 15:00N 49°18' W 000°15'0 0.6
2019-Oct-22 14:30N 49°17' W 000°15'0 0.0
2019-Oct-22 14:00N 49°17' W 000°15'0 0.0
2019-Oct-22 13:30N 49°17' W 000°15'0 0.0
2019-Oct-22 13:00N 49°17' W 000°15'1 1.8
2019-Oct-22 12:30N 49°18' W 000°15'918.5
2019-Oct-22 12:01N 49°27' W 000°17'1019.1
2019-Oct-22 11:31N 49°36' W 000°23'1019.3
2019-Oct-22 11:01N 49°45' W 000°29'1019.0
2019-Oct-22 10:31N 49°54' W 000°34'1019.2
2019-Oct-22 10:01N 50°03' W 000°40'1019.0
2019-Oct-22 09:30N 50°12' W 000°45'1218.0
2019-Oct-22 08:52N 50°22' W 000°51'719.1
2019-Oct-22 08:30N 50°29' W 000°54'919.1
2019-Oct-22 08:01N 50°38' W 000°59'918.5
2019-Oct-22 07:31N 50°46' W 001°06'2 4.9
2019-Oct-22 07:01N 50°49' W 001°06'0 0.0
2019-Oct-22 06:31N 50°49' W 001°06'0 0.0
2019-Oct-22 06:01N 50°49' W 001°06'0 0.0
2019-Oct-22 05:30N 50°49' W 001°06'3 6.2
2019-Oct-22 05:01N 50°46' W 001°05'815.7
2019-Oct-22 04:30N 50°39' W 000°59'815.5
2019-Oct-22 04:00N 50°31' W 000°55'815.4
2019-Oct-22 03:30N 50°24' W 000°52'913.5
2019-Oct-22 02:51N 50°17' W 000°45'514.7
2019-Oct-22 02:30N 50°12' W 000°42'714.6
2019-Oct-22 02:00N 50°05' W 000°38'611.3
2019-Oct-22 01:31N 49°60' W 000°36'510.7
2019-Oct-22 01:01N 49°54' W 000°33'510.7
2019-Oct-22 00:30N 49°49' W 000°30'510.8
2019-Oct-22 00:01N 49°44' W 000°28'611.0
2019-Oct-21 23:31N 49°39' W 000°25'611.3
2019-Oct-21 23:01N 49°34' W 000°23'611.5
2019-Oct-21 22:31N 49°28' W 000°19'611.6
2019-Oct-21 22:01N 49°23' W 000°16'510.8
2019-Oct-21 21:30N 49°17' W 000°15'0 0.3
2019-Oct-21 21:01N 49°17' W 000°15'0 0.0
2019-Oct-21 20:31N 49°17' W 000°15'0 0.0
2019-Oct-21 20:01N 49°17' W 000°15'0 0.0
2019-Oct-21 19:30N 49°17' W 000°15'2 3.7
2019-Oct-21 19:00N 49°19' W 000°15'816.8
2019-Oct-21 18:30N 49°27' W 000°19'917.9
2019-Oct-21 18:01N 49°35' W 000°25'917.9
2019-Oct-21 17:31N 49°43' W 000°32'918.4
2019-Oct-21 17:01N 49°52' W 000°36'918.7
2019-Oct-21 16:30N 50°01' W 000°40'918.8
2019-Oct-21 16:01N 50°10' W 000°45'1018.8
2019-Oct-21 15:27N 50°20' W 000°48'919.1
2019-Oct-21 15:00N 50°28' W 000°52'1020.7
2019-Oct-21 14:31N 50°38' W 000°58'917.6
2019-Oct-21 14:01N 50°45' W 001°05'4 7.2
2019-Oct-21 13:30N 50°49' W 001°06'0 0.0
2019-Oct-21 13:00N 50°49' W 001°06'0 0.0
2019-Oct-21 12:31N 50°49' W 001°06'0 0.3
2019-Oct-21 12:00N 50°49' W 001°06'612.0
2019-Oct-21 11:30N 50°43' W 001°02'918.5
2019-Oct-21 11:01N 50°35' W 000°55'1019.7
2019-Oct-21 10:30N 50°26' W 000°50'1019.9
2019-Oct-21 10:00N 50°16' W 000°46'1019.9
2019-Oct-21 09:30N 50°07' W 000°40'918.9
2019-Oct-21 09:00N 49°58' W 000°36'918.1
2019-Oct-21 08:30N 49°49' W 000°32'918.2
2019-Oct-21 08:01N 49°41' W 000°28'918.2
2019-Oct-21 07:30N 49°32' W 000°23'918.6
2019-Oct-21 07:00N 49°24' W 000°16'713.3
2019-Oct-21 06:30N 49°17' W 000°15'0 0.0
2019-Oct-21 06:00N 49°17' W 000°15'0 0.0
2019-Oct-21 05:30N 49°17' W 000°15'0 0.0
2019-Oct-21 05:00N 49°17' W 000°15'0 0.3
2019-Oct-21 04:30N 49°17' W 000°15'612.7
2019-Oct-21 04:00N 49°24' W 000°16'715.0
2019-Oct-21 03:30N 49°31' W 000°20'815.2
2019-Oct-21 03:00N 49°37' W 000°25'715.0
2019-Oct-21 02:30N 49°44' W 000°29'815.2
2019-Oct-21 02:00N 49°52' W 000°32'815.3
2019-Oct-21 01:30N 49°59' W 000°36'815.3
2019-Oct-21 01:00N 50°06' W 000°40'815.2
2019-Oct-21 00:30N 50°14' W 000°44'715.0
2019-Oct-21 00:00N 50°21' W 000°47'815.2
2019-Oct-20 23:30N 50°28' W 000°52'815.5
2019-Oct-20 23:00N 50°35' W 000°56'714.9
2019-Oct-20 22:30N 50°42' W 000°58'612.8
2019-Oct-20 22:01N 50°47' W 001°06'2 4.3
2019-Oct-20 21:31N 50°49' W 001°06'0 0.0
2019-Oct-20 21:01N 50°49' W 001°06'0 0.0
2019-Oct-20 20:31N 50°49' W 001°06'1 1.6
2019-Oct-20 20:01N 50°48' W 001°07'713.6
2019-Oct-20 19:31N 50°43' W 000°60'917.3
2019-Oct-20 19:00N 50°35' W 000°56'918.2
2019-Oct-20 18:30N 50°26' W 000°52'1417.8
2019-Oct-20 17:45N 50°13' W 000°44'416.6
2019-Oct-20 17:31N 50°10' W 000°42'816.4
2019-Oct-20 17:01N 50°02' W 000°38'816.5
2019-Oct-20 16:31N 49°54' W 000°33'918.8
2019-Oct-20 16:01N 49°45' W 000°28'918.8
2019-Oct-20 15:31N 49°37' W 000°23'1019.3
2019-Oct-20 15:01N 49°28' W 000°17'1019.5
2019-Oct-20 14:30N 49°18' W 000°15'1 1.5
2019-Oct-20 14:00N 49°17' W 000°15'0 0.0
2019-Oct-20 13:30N 49°17' W 000°15'0 0.0
2019-Oct-20 13:00N 49°17' W 000°15'3 6.2
2019-Oct-20 12:30N 49°20' W 000°14'1019.5
2019-Oct-20 12:00N 49°30' W 000°20'1019.7
2019-Oct-20 11:30N 49°39' W 000°25'1020.0
2019-Oct-20 11:01N 49°48' W 000°30'1020.2
2019-Oct-20 10:30N 49°58' W 000°35'1020.1
2019-Oct-20 10:00N 50°07' W 000°40'1119.9
2019-Oct-20 09:26N 50°18' W 000°46'1119.7
2019-Oct-20 08:52N 50°28' W 000°52'719.4
2019-Oct-20 08:30N 50°35' W 000°56'917.4
2019-Oct-20 08:00N 50°43' W 001°01'612.5
2019-Oct-20 07:30N 50°48' W 001°07'1 1.8
2019-Oct-20 07:00N 50°49' W 001°06'0 0.0
2019-Oct-20 06:30N 50°49' W 001°06'0 0.0
2019-Oct-20 06:00N 50°49' W 001°06'0 0.2
2019-Oct-20 05:31N 50°49' W 001°06'4 7.0
2019-Oct-20 05:00N 50°45' W 001°05'815.3
2019-Oct-20 04:30N 50°39' W 000°58'815.8
2019-Oct-20 04:00N 50°32' W 000°52'815.8
2019-Oct-20 03:30N 50°25' W 000°48'1012.2
2019-Oct-20 02:39N 50°15' W 000°41'211.3
2019-Oct-20 02:31N 50°14' W 000°40'611.1
2019-Oct-20 02:01N 50°09' W 000°36'611.0
2019-Oct-20 01:30N 50°03' W 000°33'510.8
2019-Oct-20 01:00N 49°58' W 000°31'510.8
2019-Oct-20 00:30N 49°53' W 000°29'510.8
2019-Oct-20 00:00N 49°48' W 000°26'510.8
2019-Oct-19 23:30N 49°43' W 000°24'510.8
2019-Oct-19 23:01N 49°37' W 000°22'510.8
2019-Oct-19 22:30N 49°32' W 000°20'510.5
2019-Oct-19 22:00N 49°27' W 000°18'510.7
2019-Oct-19 21:30N 49°22' W 000°15'5 9.5
2019-Oct-19 21:00N 49°17' W 000°15'0 0.0
2019-Oct-19 20:30N 49°17' W 000°15'0 0.0
2019-Oct-19 20:00N 49°17' W 000°15'0 0.0
2019-Oct-19 19:30N 49°17' W 000°15'3 6.4
2019-Oct-19 19:01N 49°21' W 000°14'918.3
2019-Oct-19 18:31N 49°29' W 000°20'918.1
2019-Oct-19 18:00N 49°37' W 000°25'918.2
2019-Oct-19 17:30N 49°46' W 000°30'918.1
2019-Oct-19 17:00N 49°55' W 000°33'918.8
2019-Oct-19 16:31N 50°03' W 000°38'1019.2
2019-Oct-19 16:01N 50°12' W 000°44'1519.5
2019-Oct-19 15:14N 50°26' W 000°52'519.5
2019-Oct-19 15:00N 50°31' W 000°54'1020.0
2019-Oct-19 14:30N 50°40' W 000°59'917.7
2019-Oct-19 14:00N 50°48' W 001°07'1 2.4
2019-Oct-19 13:30N 50°49' W 001°06'0 0.0
2019-Oct-19 13:00N 50°49' W 001°06'0 0.0
2019-Oct-19 12:30N 50°49' W 001°06'0 0.3
2019-Oct-19 12:00N 50°49' W 001°06'611.7
2019-Oct-19 11:30N 50°43' W 001°02'1019.1
2019-Oct-19 11:00N 50°35' W 000°55'1619.2
2019-Oct-19 10:09N 50°20' W 000°43'320.2
2019-Oct-19 10:00N 50°17' W 000°43'1019.7
2019-Oct-19 09:31N 50°08' W 000°39'1019.8
2019-Oct-19 09:01N 49°59' W 000°34'1019.7
2019-Oct-19 08:31N 49°49' W 000°29'1019.6
2019-Oct-19 08:00N 49°40' W 000°23'1020.0
2019-Oct-19 07:30N 49°31' W 000°17'1019.8
2019-Oct-19 07:01N 49°21' W 000°14'4 7.6
2019-Oct-19 06:30N 49°17' W 000°15'0 0.0
2019-Oct-19 06:00N 49°17' W 000°15'0 0.0
2019-Oct-19 05:30N 49°17' W 000°15'0 0.0
2019-Oct-19 05:00N 49°17' W 000°15'0 0.2
2019-Oct-19 04:30N 49°17' W 000°15'815.4
2019-Oct-19 04:00N 49°25' W 000°15'918.5
2019-Oct-19 03:30N 49°33' W 000°22'816.5
2019-Oct-19 03:00N 49°41' W 000°26'816.5
2019-Oct-19 02:30N 49°49' W 000°31'816.7
2019-Oct-19 02:00N 49°56' W 000°36'816.9
2019-Oct-19 01:30N 50°04' W 000°41'1017.0
2019-Oct-19 00:55N 50°13' W 000°48'1516.9
2019-Oct-19 00:00N 50°27' W 001°00'714.3
2019-Oct-18 23:30N 50°32' W 001°06'510.7
2019-Oct-18 23:01N 50°38' W 001°06'510.7
2019-Oct-18 22:31N 50°43' W 001°03'611.8
2019-Oct-18 22:01N 50°48' W 001°07'1 1.8
2019-Oct-18 21:30N 50°49' W 001°06'0 0.0
2019-Oct-18 21:01N 50°49' W 001°06'0 0.0
2019-Oct-18 20:31N 50°49' W 001°06'2 3.6
2019-Oct-18 20:00N 50°47' W 001°06'815.5
2019-Oct-18 19:30N 50°41' W 000°58'1019.4
2019-Oct-18 19:00N 50°31' W 000°59'2919.5
2019-Oct-18 17:32N 50°03' W 000°57'120.5
2019-Oct-18 17:29N 50°02' W 000°57'1020.7
2019-Oct-18 17:00N 49°52' W 000°54'1020.6
2019-Oct-18 16:30N 49°43' W 000°47'1121.4
2019-Oct-18 16:00N 49°35' W 000°36'1121.4
2019-Oct-18 15:30N 49°28' W 000°23'918.6
2019-Oct-18 15:00N 49°21' W 000°14'4 7.2
2019-Oct-18 14:30N 49°17' W 000°15'0 0.0
2019-Oct-18 14:00N 49°17' W 000°15'0 0.0
2019-Oct-18 13:30N 49°17' W 000°15'0 0.0
2019-Oct-18 13:00N 49°17' W 000°15'3 5.0
2019-Oct-18 12:30N 49°20' W 000°14'917.4
2019-Oct-18 12:01N 49°28' W 000°19'1019.3
2019-Oct-18 11:31N 49°37' W 000°23'1019.6
2019-Oct-18 11:01N 49°46' W 000°28'1020.1
2019-Oct-18 10:31N 49°56' W 000°35'1020.3
2019-Oct-18 10:00N 50°05' W 000°42'1020.2
2019-Oct-18 09:30N 50°14' W 000°49'1220.3
2019-Oct-18 08:54N 50°25' W 000°57'820.3
2019-Oct-18 08:30N 50°32' W 001°03'816.0
2019-Oct-18 08:00N 50°40' W 001°04'612.6
2019-Oct-18 07:30N 50°46' W 001°06'2 4.9
2019-Oct-18 07:00N 50°49' W 001°06'0 0.0
2019-Oct-18 06:30N 50°49' W 001°06'0 0.0
2019-Oct-18 06:00N 50°49' W 001°06'0 0.3
2019-Oct-18 05:30N 50°49' W 001°06'5 9.1
2019-Oct-18 05:00N 50°44' W 001°04'713.6
2019-Oct-18 04:31N 50°39' W 000°59'714.5
2019-Oct-18 04:00N 50°31' W 000°59'1312.9
2019-Oct-18 03:00N 50°18' W 001°01'510.7
2019-Oct-18 02:30N 50°13' W 001°01'711.0
2019-Oct-18 01:52N 50°06' W 001°00'511.3
2019-Oct-18 01:27N 50°01' W 001°00'511.3
2019-Oct-18 01:00N 49°56' W 000°60'611.4
2019-Oct-18 00:30N 49°51' W 000°60'510.5
2019-Oct-18 00:00N 49°46' W 000°56'714.3
2019-Oct-17 23:30N 49°41' W 000°48'714.7
2019-Oct-17 23:00N 49°36' W 000°40'714.9
2019-Oct-17 22:30N 49°31' W 000°31'713.4
2019-Oct-17 22:00N 49°26' W 000°24'612.6
2019-Oct-17 21:30N 49°22' W 000°16'5 9.9
2019-Oct-17 21:00N 49°17' W 000°15'0 0.0
2019-Oct-17 20:30N 49°17' W 000°15'0 0.0
2019-Oct-17 20:00N 49°17' W 000°15'0 0.0
2019-Oct-17 19:30N 49°17' W 000°15'3 5.6
2019-Oct-17 19:00N 49°20' W 000°14'917.6
2019-Oct-17 18:30N 49°28' W 000°20'917.4
2019-Oct-17 18:00N 49°36' W 000°24'917.5
2019-Oct-17 17:30N 49°45' W 000°28'816.8
2019-Oct-17 17:00N 49°52' W 000°35'918.9
2019-Oct-17 16:30N 50°01' W 000°39'918.8
2019-Oct-17 16:00N 50°10' W 000°44'1319.0
2019-Oct-17 15:19N 50°23' W 000°50'619.0
2019-Oct-17 15:00N 50°28' W 000°53'918.7
2019-Oct-17 14:30N 50°37' W 000°57'918.4
2019-Oct-17 14:00N 50°45' W 001°05'4 7.7
2019-Oct-17 13:30N 50°49' W 001°06'0 0.0
2019-Oct-17 13:00N 50°49' W 001°06'0 0.0
2019-Oct-17 12:30N 50°49' W 001°06'0 0.1
2019-Oct-17 12:00N 50°49' W 001°06'611.0
2019-Oct-17 11:30N 50°43' W 001°03'1019.7
2019-Oct-17 11:00N 50°35' W 000°57'2020.1
2019-Oct-17 10:02N 50°16' W 000°46'120.2
2019-Oct-17 10:00N 50°15' W 000°45'1019.7
2019-Oct-17 09:30N 50°06' W 000°40'1019.8
2019-Oct-17 09:00N 49°57' W 000°36'1019.4
2019-Oct-17 08:30N 49°48' W 000°31'918.0
2019-Oct-17 08:00N 49°39' W 000°27'918.0
2019-Oct-17 07:30N 49°31' W 000°21'918.4
2019-Oct-17 07:00N 49°22' W 000°16'510.3
2019-Oct-17 06:30N 49°17' W 000°15'0 0.0
2019-Oct-17 06:00N 49°17' W 000°15'0 0.0
2019-Oct-17 05:30N 49°17' W 000°15'0 0.0
2019-Oct-17 05:00N 49°17' W 000°15'0 0.5
2019-Oct-17 04:30N 49°18' W 000°15'713.4
2019-Oct-17 04:00N 49°24' W 000°17'714.2
2019-Oct-17 03:30N 49°31' W 000°20'510.1
2019-Oct-17 03:01N 49°36' W 000°23'5 9.8
2019-Oct-17 02:31N 49°40' W 000°25'510.1
2019-Oct-17 02:01N 49°45' W 000°27'510.1
2019-Oct-17 01:31N 49°50' W 000°29'510.4
2019-Oct-17 01:01N 49°55' W 000°32'714.3
2019-Oct-17 00:30N 50°02' W 000°36'815.2
2019-Oct-17 00:00N 50°09' W 000°39'1315.1
2019-Oct-16 23:07N 50°21' W 000°47'213.1
2019-Oct-16 23:00N 50°23' W 000°47'714.9
2019-Oct-16 22:31N 50°30' W 000°52'815.6
2019-Oct-16 22:01N 50°36' W 000°57'714.9
2019-Oct-16 21:31N 50°43' W 001°03'612.0
2019-Oct-16 21:00N 50°48' W 001°07'1 1.3
2019-Oct-16 20:31N 50°49' W 001°06'0 0.0
2019-Oct-16 20:00N 50°49' W 001°06'0 0.0
2019-Oct-16 19:31N 50°49' W 001°06'0 0.0
2019-Oct-16 19:01N 50°49' W 001°06'0 0.0
2019-Oct-16 18:31N 50°49' W 001°06'1 1.4
2019-Oct-16 18:01N 50°48' W 001°07'612.5
2019-Oct-16 17:30N 50°43' W 001°01'815.7
2019-Oct-16 17:00N 50°36' W 000°57'1816.9
2019-Oct-16 15:56N 50°19' W 000°47'715.9
2019-Oct-16 15:30N 50°12' W 000°44'816.6
2019-Oct-16 15:00N 50°05' W 000°39'816.6
2019-Oct-16 14:30N 49°57' W 000°35'816.9
2019-Oct-16 14:00N 49°49' W 000°30'816.7
2019-Oct-16 13:30N 49°41' W 000°25'918.5
2019-Oct-16 13:00N 49°32' W 000°20'1019.1
2019-Oct-16 12:30N 49°23' W 000°16'612.1
2019-Oct-16 12:00N 49°17' W 000°15'0 0.0
2019-Oct-16 11:30N 49°17' W 000°15'0 0.0
2019-Oct-16 11:00N 49°17' W 000°15'0 0.0
2019-Oct-16 10:30N 49°17' W 000°15'0 0.0
2019-Oct-16 10:00N 49°17' W 000°15'0 0.1
2019-Oct-16 09:30N 49°17' W 000°15'0 0.0
2019-Oct-16 09:00N 49°17' W 000°15'0 0.0
2019-Oct-16 08:30N 49°17' W 000°15'0 0.0
2019-Oct-16 08:00N 49°17' W 000°15'0 0.0
2019-Oct-16 07:30N 49°17' W 000°15'0 0.1
2019-Oct-16 07:00N 49°17' W 000°15'0 0.0
2019-Oct-16 06:30N 49°17' W 000°15'0 0.0
2019-Oct-16 06:00N 49°17' W 000°15'0 0.0
2019-Oct-16 05:30N 49°17' W 000°15'0 0.7
2019-Oct-16 05:00N 49°18' W 000°15'713.4
2019-Oct-16 04:30N 49°24' W 000°15'816.0
2019-Oct-16 04:00N 49°32' W 000°19'816.3
2019-Oct-16 03:30N 49°39' W 000°24'815.7
2019-Oct-16 03:00N 49°46' W 000°30'815.7
2019-Oct-16 02:30N 49°54' W 000°32'815.2
2019-Oct-16 02:00N 50°01' W 000°36'612.9
2019-Oct-16 01:30N 50°07' W 000°39'1713.4
2019-Oct-16 00:14N 50°23' W 000°48'413.9
2019-Oct-15 23:59N 50°26' W 000°50'714.0
2019-Oct-15 23:30N 50°33' W 000°55'713.8
2019-Oct-15 23:00N 50°39' W 000°59'713.1
2019-Oct-15 22:30N 50°44' W 001°04'4 8.9
2019-Oct-15 22:00N 50°49' W 001°07'1 1.5
2019-Oct-15 21:30N 50°49' W 001°06'0 0.0
2019-Oct-15 21:00N 50°49' W 001°06'0 0.0
2019-Oct-15 20:30N 50°49' W 001°06'1 1.2
2019-Oct-15 20:00N 50°49' W 001°07'713.1
2019-Oct-15 19:31N 50°43' W 001°01'918.7
2019-Oct-15 19:01N 50°35' W 000°54'1918.6
2019-Oct-15 18:00N 50°17' W 000°47'918.7
2019-Oct-15 17:30N 50°08' W 000°44'919.0
2019-Oct-15 17:01N 49°59' W 000°40'1019.5
2019-Oct-15 16:31N 49°50' W 000°32'918.4
2019-Oct-15 16:01N 49°41' W 000°28'1019.3
2019-Oct-15 15:31N 49°32' W 000°24'1019.6
2019-Oct-15 15:01N 49°24' W 000°17'612.6
2019-Oct-15 14:30N 49°17' W 000°15'0 0.0
2019-Oct-15 14:00N 49°17' W 000°15'0 0.0
2019-Oct-15 13:30N 49°17' W 000°15'0 0.0
2019-Oct-15 13:00N 49°17' W 000°15'3 6.1
2019-Oct-15 12:31N 49°20' W 000°14'1019.3
2019-Oct-15 12:01N 49°30' W 000°19'1019.4
2019-Oct-15 11:31N 49°38' W 000°27'1019.6
2019-Oct-15 11:00N 49°47' W 000°33'1019.6
2019-Oct-15 10:31N 49°56' W 000°39'1019.5
2019-Oct-15 10:01N 50°05' W 000°43'2019.7
2019-Oct-15 09:00N 50°24' W 000°52'1020.3
2019-Oct-15 08:31N 50°34' W 000°57'918.8
2019-Oct-15 08:01N 50°43' W 001°00'713.9
2019-Oct-15 07:30N 50°48' W 001°07'1 1.4
2019-Oct-15 07:00N 50°49' W 001°06'0 0.0
2019-Oct-15 06:30N 50°49' W 001°06'0 0.0
2019-Oct-15 06:00N 50°49' W 001°06'1 1.3
2019-Oct-15 05:30N 50°48' W 001°07'611.7
2019-Oct-15 05:00N 50°44' W 001°02'612.9
2019-Oct-15 04:30N 50°38' W 000°58'814.9
2019-Oct-15 03:59N 50°30' W 000°54'1712.3
2019-Oct-15 02:36N 50°14' W 000°46'112.2
2019-Oct-15 02:30N 50°13' W 000°45'612.1
2019-Oct-15 02:00N 50°07' W 000°42'612.4
2019-Oct-15 01:30N 50°01' W 000°38'612.5
2019-Oct-15 01:00N 49°56' W 000°34'612.3
2019-Oct-15 00:30N 49°50' W 000°31'612.1
2019-Oct-15 00:00N 49°45' W 000°27'611.8
2019-Oct-14 23:30N 49°39' W 000°24'611.5
2019-Oct-14 23:00N 49°33' W 000°22'611.4
2019-Oct-14 22:30N 49°28' W 000°19'611.3
2019-Oct-14 22:00N 49°23' W 000°15'510.5
2019-Oct-14 21:30N 49°18' W 000°15'0 0.5
2019-Oct-14 21:00N 49°17' W 000°15'0 0.0
2019-Oct-14 20:30N 49°17' W 000°15'0 0.0
2019-Oct-14 20:00N 49°17' W 000°15'0 0.0
2019-Oct-14 19:30N 49°17' W 000°15'4 7.2
2019-Oct-14 19:00N 49°21' W 000°14'1019.3
2019-Oct-14 18:30N 49°30' W 000°19'918.5
2019-Oct-14 18:00N 49°38' W 000°25'918.0
2019-Oct-14 17:30N 49°47' W 000°31'917.9
2019-Oct-14 17:00N 49°54' W 000°39'918.0
2019-Oct-14 16:30N 50°02' W 000°45'918.1
2019-Oct-14 16:00N 50°11' W 000°49'1718.8
2019-Oct-14 15:06N 50°27' W 000°52'218.4
2019-Oct-14 15:00N 50°29' W 000°53'918.3
2019-Oct-14 14:30N 50°38' W 000°58'917.1
2019-Oct-14 14:00N 50°45' W 001°05'4 7.3
2019-Oct-14 13:31N 50°49' W 001°06'0 0.0
2019-Oct-14 13:01N 50°49' W 001°06'0 0.0
2019-Oct-14 12:31N 50°49' W 001°06'0 0.5
2019-Oct-14 12:01N 50°49' W 001°06'611.7
2019-Oct-14 11:30N 50°43' W 001°03'917.6
2019-Oct-14 11:00N 50°35' W 000°58'1819.7
2019-Oct-14 10:07N 50°18' W 000°49'221.0
2019-Oct-14 10:00N 50°16' W 000°48'1020.4
2019-Oct-14 09:30N 50°07' W 000°43'1020.2
2019-Oct-14 09:00N 49°57' W 000°38'1020.1
2019-Oct-14 08:30N 49°48' W 000°33'1020.1
2019-Oct-14 08:00N 49°38' W 000°29'1019.8
2019-Oct-14 07:30N 49°29' W 000°22'918.7
2019-Oct-14 07:00N 49°21' W 000°15'4 7.2
2019-Oct-14 06:30N 49°17' W 000°15'0 0.0
2019-Oct-14 06:00N 49°17' W 000°15'0 0.0
2019-Oct-14 05:30N 49°17' W 000°15'0 0.0
2019-Oct-14 05:01N 49°17' W 000°15'0 0.2
2019-Oct-14 04:30N 49°17' W 000°15'713.9
2019-Oct-14 04:00N 49°24' W 000°15'816.3
2019-Oct-14 03:30N 49°32' W 000°21'816.9
2019-Oct-14 03:00N 49°39' W 000°26'917.3
2019-Oct-14 02:30N 49°48' W 000°29'715.0
2019-Oct-14 02:00N 49°55' W 000°33'714.2
2019-Oct-14 01:30N 50°02' W 000°36'714.4
2019-Oct-14 01:00N 50°09' W 000°39'2214.7
2019-Oct-13 23:31N 50°29' W 000°53'015.3
2019-Oct-13 23:30N 50°29' W 000°53'815.2
2019-Oct-13 23:00N 50°36' W 000°57'714.2
2019-Oct-13 22:30N 50°42' W 001°02'611.9
2019-Oct-13 22:00N 50°47' W 001°07'1 2.7
2019-Oct-13 21:30N 50°49' W 001°06'0 0.0
2019-Oct-13 21:00N 50°49' W 001°06'0 0.0
2019-Oct-13 20:30N 50°49' W 001°06'0 0.8
2019-Oct-13 20:01N 50°49' W 001°06'612.3
2019-Oct-13 19:30N 50°43' W 001°01'918.3
2019-Oct-13 19:00N 50°35' W 000°57'2019.5
2019-Oct-13 18:00N 50°16' W 000°47'918.1
2019-Oct-13 17:30N 50°08' W 000°43'918.4
2019-Oct-13 17:00N 49°59' W 000°39'918.8
2019-Oct-13 16:30N 49°50' W 000°34'918.9
2019-Oct-13 16:00N 49°41' W 000°28'918.8
2019-Oct-13 15:30N 49°33' W 000°20'919.0
2019-Oct-13 15:00N 49°24' W 000°16'713.8
2019-Oct-13 14:30N 49°17' W 000°15'0 0.1
2019-Oct-13 14:00N 49°17' W 000°15'0 0.0
2019-Oct-13 13:30N 49°17' W 000°15'0 0.0
2019-Oct-13 13:00N 49°17' W 000°15'4 8.0
2019-Oct-13 12:31N 49°21' W 000°15'918.3
2019-Oct-13 12:01N 49°30' W 000°20'918.2
2019-Oct-13 11:31N 49°38' W 000°26'918.9
2019-Oct-13 11:01N 49°46' W 000°33'1019.6
2019-Oct-13 10:31N 49°55' W 000°39'1019.9
2019-Oct-13 10:01N 50°05' W 000°44'1020.0
2019-Oct-13 09:30N 50°14' W 000°49'1019.9
2019-Oct-13 09:00N 50°24' W 000°54'1019.7
2019-Oct-13 08:31N 50°33' W 000°57'918.6
2019-Oct-13 08:01N 50°42' W 001°01'714.4
2019-Oct-13 07:31N 50°48' W 001°07'1 1.5
2019-Oct-13 07:00N 50°49' W 001°06'0 0.0
2019-Oct-13 06:30N 50°49' W 001°06'0 0.0
2019-Oct-13 06:00N 50°49' W 001°06'0 0.2
2019-Oct-13 05:31N 50°49' W 001°06'5 9.1
2019-Oct-13 05:01N 50°44' W 001°04'713.5
2019-Oct-13 04:30N 50°39' W 000°58'611.7
2019-Oct-13 04:01N 50°33' W 000°55'611.7
2019-Oct-13 03:28N 50°28' W 000°51'1111.4
2019-Oct-13 02:33N 50°18' W 000°45'111.8
2019-Oct-13 02:26N 50°17' W 000°44'511.5
2019-Oct-13 02:00N 50°12' W 000°42'611.5
2019-Oct-13 01:30N 50°07' W 000°39'612.0
2019-Oct-13 01:01N 50°01' W 000°36'612.1
2019-Oct-13 00:30N 49°55' W 000°34'612.3
2019-Oct-13 00:00N 49°49' W 000°30'  

Dump ship's entire track history